createdAt,value
2022-10-02T00:01:58.985Z,100516.16
2022-10-02T00:04:33.956Z,100517.13
2022-10-02T00:07:07.149Z,100515.47
2022-10-02T00:09:43.048Z,100517.59
2022-10-02T00:12:15.337Z,100518.06
2022-10-02T00:14:46.489Z,100519.56
2022-10-02T00:17:21.894Z,100517.06
2022-10-02T00:19:54.001Z,100505.84
2022-10-02T00:22:42.598Z,100518.47
2022-10-02T00:25:21.194Z,100515.22
2022-10-02T00:28:02.314Z,100517.03
2022-10-02T00:30:38.058Z,100513.91
2022-10-02T00:33:19.288Z,100511.16
2022-10-02T00:36:02.481Z,100513.50
2022-10-02T00:38:42.471Z,100525.22
2022-10-02T00:41:49.374Z,100530.53
2022-10-02T00:44:38.463Z,100523.22
2022-10-02T00:47:15.856Z,100522.00
2022-10-02T00:49:59.504Z,100518.84
2022-10-02T00:52:43.883Z,100517.22
2022-10-02T00:55:24.070Z,100528.16
2022-10-02T00:58:04.788Z,100525.13
2022-10-02T01:00:33.077Z,100532.25
2022-10-02T01:03:19.081Z,100539.94
2022-10-02T01:05:48.620Z,100546.69
2022-10-02T01:08:17.702Z,100539.00
2022-10-02T01:10:46.638Z,100526.63
2022-10-02T01:13:14.631Z,100539.34
2022-10-02T01:15:47.755Z,100537.44
2022-10-02T01:18:16.308Z,100532.09
2022-10-02T01:20:47.617Z,100530.28
2022-10-02T01:23:25.728Z,100532.72
2022-10-02T01:25:55.188Z,100527.88
2022-10-02T01:28:23.762Z,100538.94
2022-10-02T01:30:55.843Z,100543.56
2022-10-02T01:33:24.080Z,100540.41
2022-10-02T01:35:52.362Z,100544.81
2022-10-02T01:38:24.686Z,100535.22
2022-10-02T01:40:52.643Z,100541.97
2022-10-02T01:43:25.455Z,100541.16
2022-10-02T01:46:02.546Z,100541.41
2022-10-02T01:48:43.274Z,100544.63
2022-10-02T01:51:23.141Z,100547.00
2022-10-02T01:53:57.773Z,100551.31
2022-10-02T01:56:36.037Z,100546.91
2022-10-02T01:59:17.192Z,100547.13
2022-10-02T02:01:52.942Z,100552.63
2022-10-02T02:04:24.974Z,100548.09
2022-10-02T02:06:58.879Z,100559.59
2022-10-02T02:09:34.808Z,100558.75
2022-10-02T02:12:11.079Z,100550.75
2022-10-02T02:14:45.954Z,100552.38
2022-10-02T02:17:21.333Z,100555.06
2022-10-02T02:19:53.497Z,100554.81
2022-10-02T02:22:39.255Z,100408.16
2022-10-02T02:25:12.015Z,100547.84
2022-10-02T02:27:43.166Z,100547.00
2022-10-02T02:30:15.620Z,100545.44
2022-10-02T02:32:49.073Z,100545.03
2022-10-02T02:35:18.753Z,100546.69
2022-10-02T02:37:50.176Z,100536.97
2022-10-02T02:40:23.809Z,100552.88
2022-10-02T02:42:58.106Z,100547.63
2022-10-02T02:45:31.495Z,100556.16
2022-10-02T02:48:02.502Z,100551.47
2022-10-02T02:50:35.534Z,100560.50
2022-10-02T02:53:07.896Z,100561.34
2022-10-02T02:55:45.032Z,100563.00
2022-10-02T02:58:18.909Z,100569.19
2022-10-02T03:00:48.555Z,100568.81
2022-10-02T03:03:16.632Z,100571.47
2022-10-02T03:05:49.975Z,100567.06
2022-10-02T03:08:24.034Z,100576.66
2022-10-02T03:11:05.353Z,100570.53
2022-10-02T03:13:45.143Z,100569.59
2022-10-02T03:16:25.733Z,100556.09
2022-10-02T03:19:07.358Z,100574.44
2022-10-02T03:21:41.856Z,100573.66
2022-10-02T03:24:17.733Z,100561.19
2022-10-02T03:26:51.852Z,100567.63
2022-10-02T03:29:24.382Z,100562.53
2022-10-02T03:31:55.654Z,100573.19
2022-10-02T03:34:24.787Z,100574.75
2022-10-02T03:36:53.023Z,100577.03
2022-10-02T03:39:25.240Z,100573.13
2022-10-02T03:41:54.818Z,100568.78
2022-10-02T03:44:22.711Z,100575.72
2022-10-02T03:46:51.305Z,100577.28
2022-10-02T03:49:20.685Z,100568.34
2022-10-02T03:51:48.602Z,100557.50
2022-10-02T03:54:19.816Z,100558.22
2022-10-02T03:56:55.512Z,100549.19
2022-10-02T03:59:36.365Z,100541.47
2022-10-02T04:02:09.999Z,100551.94
2022-10-02T04:04:47.147Z,100548.47
2022-10-02T04:07:20.221Z,100541.47
2022-10-02T04:09:56.557Z,100549.34
2022-10-02T04:12:30.180Z,100561.66
2022-10-02T04:15:03.172Z,100558.56
2022-10-02T04:17:43.920Z,100567.63
2022-10-02T04:20:19.543Z,100570.28
2022-10-02T04:22:53.920Z,100571.28
2022-10-02T04:25:26.170Z,100577.56
2022-10-02T04:27:58.654Z,100581.66
2022-10-02T04:30:26.955Z,100580.38
2022-10-02T04:32:55.101Z,100585.09
2022-10-02T04:35:33.380Z,100595.34
2022-10-02T04:38:22.750Z,100600.75
2022-10-02T04:41:10.373Z,100614.53
2022-10-02T04:43:54.159Z,100603.44
2022-10-02T04:46:44.159Z,100613.34
2022-10-02T04:49:47.648Z,100609.31
2022-10-02T04:52:34.555Z,100616.94
2022-10-02T04:55:33.420Z,100624.09
2022-10-02T04:58:22.300Z,100630.22
2022-10-02T05:01:00.918Z,100612.03
2022-10-02T05:03:43.880Z,100628.66
2022-10-02T05:06:25.286Z,100626.69
2022-10-02T05:09:05.239Z,100612.13
2022-10-02T05:12:08.579Z,100602.38
2022-10-02T05:14:55.881Z,100620.97
2022-10-02T05:17:40.879Z,100626.09
2022-10-02T05:20:26.925Z,100623.56
2022-10-02T05:23:11.903Z,100624.72
2022-10-02T05:26:01.401Z,100627.16
2022-10-02T05:29:04.217Z,100618.59
2022-10-02T05:31:48.619Z,100622.69
2022-10-02T05:34:35.625Z,100627.63
2022-10-02T05:37:22.063Z,100621.69
2022-10-02T05:39:57.112Z,100629.69
2022-10-02T05:42:33.815Z,100638.13
2022-10-02T05:45:04.920Z,100635.16
2022-10-02T05:47:38.135Z,100641.72
2022-10-02T05:50:15.833Z,100626.75
2022-10-02T05:52:48.544Z,100639.63
2022-10-02T05:55:23.015Z,100636.47
2022-10-02T05:57:57.100Z,100647.38
2022-10-02T06:00:33.590Z,100636.72
2022-10-02T06:03:10.951Z,100635.00
2022-10-02T06:05:47.173Z,100636.72
2022-10-02T06:08:17.577Z,100641.47
2022-10-02T06:10:51.550Z,100633.03
2022-10-02T06:13:28.508Z,100639.03
2022-10-02T06:16:03.862Z,100642.25
2022-10-02T06:18:36.367Z,100642.56
2022-10-02T06:21:08.420Z,100641.63
2022-10-02T06:23:40.598Z,100645.16
2022-10-02T06:26:13.783Z,100641.63
2022-10-02T06:28:49.240Z,100628.13
2022-10-02T06:31:21.962Z,100637.84
2022-10-02T06:33:52.749Z,100650.25
2022-10-02T06:36:41.086Z,100652.13
2022-10-02T06:39:25.874Z,100656.13
2022-10-02T06:42:06.627Z,100654.00
2022-10-02T06:44:42.736Z,100660.25
2022-10-02T06:47:21.327Z,100662.69
2022-10-02T06:50:03.598Z,100662.00
2022-10-02T06:52:39.767Z,100668.19
2022-10-02T06:55:24.759Z,100664.03
2022-10-02T06:58:06.719Z,100669.22
2022-10-02T07:00:47.423Z,100659.59
2022-10-02T07:03:32.798Z,100659.72
2022-10-02T07:06:14.017Z,100664.97
2022-10-02T07:09:07.642Z,100667.16
2022-10-02T07:11:47.083Z,100672.41
2022-10-02T07:14:25.354Z,100670.81
2022-10-02T07:17:11.266Z,100676.53
2022-10-02T07:20:06.825Z,100660.25
2022-10-02T07:22:58.450Z,100681.03
2022-10-02T07:25:58.152Z,100671.38
2022-10-02T07:28:33.858Z,100673.63
2022-10-02T07:31:09.024Z,100679.06
2022-10-02T07:33:48.549Z,100679.78
2022-10-02T07:36:25.303Z,100681.00
2022-10-02T07:39:13.764Z,100691.91
2022-10-02T07:42:26.281Z,100698.97
2022-10-02T07:45:19.358Z,100659.53
2022-10-02T07:48:14.376Z,100702.41
2022-10-02T07:51:00.942Z,100707.88
2022-10-02T07:53:39.862Z,100692.03
2022-10-02T07:56:11.739Z,100707.22
2022-10-02T07:58:56.048Z,100704.22
2022-10-02T08:01:34.779Z,100699.69
2022-10-02T08:04:06.900Z,100719.41
2022-10-02T08:06:37.596Z,100723.25
2022-10-02T08:09:12.896Z,100718.91
2022-10-02T08:11:49.504Z,100712.38
2022-10-02T08:14:24.398Z,100719.44
2022-10-02T08:16:55.644Z,100720.19
2022-10-02T08:19:29.848Z,100724.75
2022-10-02T08:22:04.144Z,100722.53
2022-10-02T08:24:37.559Z,100735.25
2022-10-02T08:27:10.247Z,100725.88
2022-10-02T08:29:43.619Z,100723.59
2022-10-02T08:32:12.937Z,100731.19
2022-10-02T08:34:42.345Z,100708.25
2022-10-02T08:37:29.812Z,100738.66
2022-10-02T08:40:37.159Z,100737.38
2022-10-02T08:43:47.370Z,100752.25
2022-10-02T08:46:58.454Z,100753.78
2022-10-02T08:50:15.228Z,100743.56
2022-10-02T08:53:34.498Z,100748.09
2022-10-02T08:56:16.448Z,100755.91
2022-10-02T08:59:18.223Z,100757.41
2022-10-02T09:02:30.166Z,100745.28
2022-10-02T09:05:39.581Z,100753.28
2022-10-02T09:08:46.113Z,100757.69
2022-10-02T09:11:37.315Z,100763.38
2022-10-02T09:14:22.789Z,100760.38
2022-10-02T09:17:30.724Z,100761.91
2022-10-02T09:20:18.905Z,100758.50
2022-10-02T09:23:13.546Z,100752.34
2022-10-02T09:25:50.517Z,100756.50
2022-10-02T09:29:20.474Z,100764.47
2022-10-02T09:32:19.795Z,100760.84
2022-10-02T09:35:23.045Z,100759.38
2022-10-02T09:38:16.002Z,100755.84
2022-10-02T09:41:27.909Z,100755.09
2022-10-02T09:44:34.145Z,100763.78
2022-10-02T09:47:37.564Z,100750.44
2022-10-02T09:50:49.888Z,100752.34
2022-10-02T09:53:54.248Z,100758.41
2022-10-02T09:57:01.018Z,100758.97
2022-10-02T09:59:58.219Z,100750.16
2022-10-02T10:03:08.700Z,100751.44
2022-10-02T10:06:09.598Z,100763.69
2022-10-02T10:08:59.346Z,100763.50
2022-10-02T10:12:06.372Z,100761.44
2022-10-02T10:15:08.965Z,100766.13
2022-10-02T10:18:19.220Z,100770.97
2022-10-02T10:21:08.291Z,100755.44
2022-10-02T10:24:31.323Z,100770.44
2022-10-02T10:27:17.889Z,100773.84
2022-10-02T10:30:10.039Z,100770.63
2022-10-02T10:33:10.333Z,100769.63
2022-10-02T10:35:54.795Z,100779.28
2022-10-02T10:38:43.945Z,100778.81
2022-10-02T10:41:49.153Z,100778.09
2022-10-02T10:44:41.076Z,100772.28
2022-10-02T10:47:31.968Z,100786.50
2022-10-02T10:50:37.107Z,100773.66
2022-10-02T10:53:47.623Z,100784.94
2022-10-02T10:56:37.005Z,100776.78
2022-10-02T10:59:27.679Z,100770.88
2022-10-02T11:02:13.849Z,100774.69
2022-10-02T11:05:03.604Z,100765.47
2022-10-02T11:07:50.393Z,100775.03
2022-10-02T11:10:47.897Z,100755.31
2022-10-02T11:13:28.767Z,100768.34
2022-10-02T11:16:31.680Z,100771.03
2022-10-02T11:19:22.145Z,100774.31
2022-10-02T11:22:16.095Z,100767.97
2022-10-02T11:25:12.821Z,100773.44
2022-10-02T11:27:59.444Z,100779.06
2022-10-02T11:30:41.435Z,100802.44
2022-10-02T11:33:31.058Z,100798.00
2022-10-02T11:36:24.379Z,100807.22
2022-10-02T11:39:26.622Z,100815.16
2022-10-02T11:42:27.501Z,100804.75
2022-10-02T11:45:16.405Z,100815.19
2022-10-02T11:48:09.177Z,100816.56
2022-10-02T11:50:58.536Z,100817.34
2022-10-02T11:54:10.977Z,100828.09
2022-10-02T11:57:00.673Z,100818.50
2022-10-02T11:59:57.555Z,100819.16
2022-10-02T12:02:32.624Z,100814.31
2022-10-02T12:05:17.919Z,100829.50
2022-10-02T12:07:58.260Z,100820.91
2022-10-02T12:10:41.416Z,100823.09
2022-10-02T12:13:43.101Z,100825.31
2022-10-02T12:16:20.923Z,100823.69
2022-10-02T12:19:05.029Z,100788.53
2022-10-02T12:22:11.478Z,100827.44
2022-10-02T12:25:06.452Z,100823.19
2022-10-02T12:27:46.203Z,100783.81
2022-10-02T12:30:19.884Z,100812.38
2022-10-02T12:33:01.777Z,100819.13
2022-10-02T12:36:05.349Z,100822.28
2022-10-02T12:38:39.447Z,100829.78
2022-10-02T12:41:18.731Z,100828.28
2022-10-02T12:43:57.307Z,100823.09
2022-10-02T12:47:00.521Z,100829.81
2022-10-02T12:49:40.477Z,100838.25
2022-10-02T12:52:50.623Z,100835.44
2022-10-02T12:55:52.009Z,100840.31
2022-10-02T12:58:32.437Z,100837.84
2022-10-02T13:01:22.452Z,100846.47
2022-10-02T13:04:39.072Z,100842.22
2022-10-02T13:07:55.778Z,100843.41
2022-10-02T13:10:27.571Z,100845.81
2022-10-02T13:13:17.413Z,100840.84
2022-10-02T13:15:54.804Z,100848.69
2022-10-02T13:18:43.848Z,100847.63
2022-10-02T13:21:18.813Z,100848.88
2022-10-02T13:24:00.990Z,100852.59
2022-10-02T13:26:42.480Z,100840.91
2022-10-02T13:29:32.752Z,100840.06
2022-10-02T13:32:16.996Z,100850.31
2022-10-02T13:35:15.685Z,100852.13
2022-10-02T13:37:56.835Z,100852.31
2022-10-02T13:40:31.086Z,100850.38
2022-10-02T13:43:42.302Z,100852.22
2022-10-02T13:46:26.933Z,100855.25
2022-10-02T13:49:07.523Z,100852.19
2022-10-02T13:51:46.625Z,100863.31
2022-10-02T13:54:30.255Z,100861.63
2022-10-02T13:57:06.811Z,100863.09
2022-10-02T13:59:50.661Z,100857.22
2022-10-02T14:02:38.691Z,100853.56
2022-10-02T14:05:11.416Z,100855.69
2022-10-02T14:08:02.470Z,100854.13
2022-10-02T14:10:41.182Z,100864.13
2022-10-02T14:13:25.111Z,100852.22
2022-10-02T14:16:07.476Z,100854.66
2022-10-02T14:18:49.306Z,100858.56
2022-10-02T14:21:26.755Z,100862.00
2022-10-02T14:24:11.517Z,100849.16
2022-10-02T14:26:55.025Z,100859.09
2022-10-02T14:29:36.838Z,100855.81
2022-10-02T14:32:26.185Z,100858.16
2022-10-02T14:35:15.944Z,100854.31
2022-10-02T14:38:05.714Z,100853.63
2022-10-02T14:40:46.978Z,100856.22
2022-10-02T14:43:37.783Z,100866.34
2022-10-02T14:46:38.067Z,100856.38
2022-10-02T14:49:35.755Z,100869.63
2022-10-02T14:52:51.623Z,100879.13
2022-10-02T14:55:33.994Z,100931.69
2022-10-02T14:58:17.314Z,100934.91
2022-10-02T15:01:01.928Z,100942.75
2022-10-02T15:03:43.468Z,100941.41
2022-10-02T15:06:23.743Z,100935.97
2022-10-02T15:08:57.091Z,100943.75
2022-10-02T15:11:52.845Z,100935.97
2022-10-02T15:14:26.803Z,100935.91
2022-10-02T15:17:18.300Z,100932.19
2022-10-02T15:19:50.058Z,100928.91
2022-10-02T15:22:22.529Z,100936.16
2022-10-02T15:24:57.056Z,100930.81
2022-10-02T15:27:29.908Z,100939.34
2022-10-02T15:30:06.175Z,100942.63
2022-10-02T15:32:49.603Z,100938.56
2022-10-02T15:35:28.494Z,100952.06
2022-10-02T15:38:32.263Z,100945.63
2022-10-02T15:41:29.623Z,100950.59
2022-10-02T15:44:09.709Z,100955.56
2022-10-02T15:46:51.593Z,100950.81
2022-10-02T15:49:32.225Z,100955.16
2022-10-02T15:52:11.430Z,100960.28
2022-10-02T15:54:51.343Z,100958.69
2022-10-02T15:57:45.521Z,100969.53
2022-10-02T16:00:18.881Z,100938.94
2022-10-02T16:03:00.897Z,100976.94
2022-10-02T16:05:39.940Z,100991.09
2022-10-02T16:08:23.524Z,100981.59
2022-10-02T16:11:09.569Z,100988.81
2022-10-02T16:13:48.065Z,100981.34
2022-10-02T16:16:35.347Z,100988.81
2022-10-02T16:19:14.293Z,100985.84
2022-10-02T16:22:01.553Z,100987.16
2022-10-02T16:24:48.870Z,101010.66
2022-10-02T16:27:27.259Z,101007.56
2022-10-02T16:30:08.196Z,101007.72
2022-10-02T16:32:48.457Z,101011.94
2022-10-02T16:35:26.077Z,101021.63
2022-10-02T16:38:00.707Z,101021.25
2022-10-02T16:40:40.378Z,101030.44
2022-10-02T16:43:47.205Z,101021.84
2022-10-02T16:46:20.179Z,101042.22
2022-10-02T16:48:56.928Z,101039.03
2022-10-02T16:51:36.041Z,101034.66
2022-10-02T16:54:15.517Z,101046.75
2022-10-02T16:56:45.821Z,101047.63
2022-10-02T16:59:17.237Z,101047.59
2022-10-02T17:02:15.967Z,101047.66
2022-10-02T17:04:47.889Z,101070.81
2022-10-02T17:07:27.666Z,101063.75
2022-10-02T17:10:02.288Z,101069.63
2022-10-02T17:12:35.927Z,101071.25
2022-10-02T17:15:15.263Z,101074.56
2022-10-02T17:17:56.106Z,101083.50
2022-10-02T17:20:29.674Z,101085.59
2022-10-02T17:23:04.365Z,101082.22
2022-10-02T17:25:43.189Z,101089.34
2022-10-02T17:28:21.842Z,101089.03
2022-10-02T17:31:18.772Z,101099.72
2022-10-02T17:33:51.844Z,101100.75
2022-10-02T17:36:31.119Z,101110.56
2022-10-02T17:39:17.758Z,101122.28
2022-10-02T17:41:53.912Z,101117.19
2022-10-02T17:44:28.030Z,101124.50
2022-10-02T17:47:21.098Z,101135.19
2022-10-02T17:50:07.783Z,101138.22
2022-10-02T17:53:02.273Z,101133.25
2022-10-02T17:56:18.857Z,101149.19
2022-10-02T17:58:56.014Z,101158.94
2022-10-02T18:01:31.881Z,101167.94
2022-10-02T18:04:13.299Z,101161.59
2022-10-02T18:06:50.868Z,101176.81
2022-10-02T18:09:38.562Z,101183.31
2022-10-02T18:12:32.992Z,101168.13
2022-10-02T18:15:16.911Z,101183.13
2022-10-02T18:18:01.728Z,101182.00
2022-10-02T18:20:35.369Z,101185.78
2022-10-02T18:23:16.431Z,101191.44
2022-10-02T18:26:00.141Z,101191.31
2022-10-02T18:28:51.191Z,101193.38
2022-10-02T18:31:54.539Z,101206.47
2022-10-02T18:34:42.709Z,101207.13
2022-10-02T18:37:25.240Z,101206.59
2022-10-02T18:40:07.154Z,101214.72
2022-10-02T18:42:50.167Z,101210.81
2022-10-02T18:45:33.733Z,101221.59
2022-10-02T18:48:31.962Z,101231.03
2022-10-02T18:51:22.619Z,101227.91
2022-10-02T18:54:10.636Z,101224.56
2022-10-02T18:56:59.303Z,101237.03
2022-10-02T18:59:45.997Z,101245.66
2022-10-02T19:02:26.369Z,101248.22
2022-10-02T19:05:10.762Z,101249.19
2022-10-02T19:07:42.984Z,101246.00
2022-10-02T19:10:40.729Z,101244.88
2022-10-02T19:13:22.209Z,101254.47
2022-10-02T19:15:53.371Z,101253.84
2022-10-02T19:18:23.640Z,101257.56
2022-10-02T19:20:59.501Z,101252.09
2022-10-02T19:23:35.553Z,101261.47
2022-10-02T19:26:08.148Z,101260.25
2022-10-02T19:28:45.689Z,101265.72
2022-10-02T19:31:22.266Z,101266.06
2022-10-02T19:33:54.699Z,101267.91
2022-10-02T19:36:26.275Z,101274.50
2022-10-02T19:38:57.144Z,101278.47
2022-10-02T19:41:26.829Z,101282.59
2022-10-02T19:43:59.770Z,101285.16
2022-10-02T19:46:35.746Z,101291.38
2022-10-02T19:49:05.741Z,101298.59
2022-10-02T19:51:43.870Z,101299.56
2022-10-02T19:54:17.379Z,101301.41
2022-10-02T19:56:45.970Z,101298.63
2022-10-02T19:59:18.868Z,101292.91
2022-10-02T20:01:52.078Z,101293.03
2022-10-02T20:04:21.982Z,101273.84
2022-10-02T20:06:56.691Z,101300.31
2022-10-02T20:09:31.003Z,101307.13
2022-10-02T20:12:03.176Z,101314.25
2022-10-02T20:14:38.039Z,101314.41
2022-10-02T20:17:09.035Z,101312.84
2022-10-02T20:19:41.590Z,101314.59
2022-10-02T20:22:20.025Z,101312.84
2022-10-02T20:24:56.236Z,101323.28
2022-10-02T20:27:29.806Z,101313.59
2022-10-02T20:30:05.764Z,101321.75
2022-10-02T20:32:42.004Z,101324.44
2022-10-02T20:35:15.972Z,101332.59
2022-10-02T20:37:46.656Z,101334.59
2022-10-02T20:40:18.814Z,101336.44
2022-10-02T20:42:53.298Z,101338.06
2022-10-02T20:45:28.075Z,101338.97
2022-10-02T20:48:26.680Z,101348.06
2022-10-02T20:50:59.060Z,101352.47
2022-10-02T20:53:58.675Z,101355.78
2022-10-02T20:56:52.527Z,101357.53
2022-10-02T20:59:53.531Z,101360.06
2022-10-02T21:02:37.262Z,101362.00
2022-10-02T21:05:39.019Z,101371.03
2022-10-02T21:08:30.018Z,101377.41
2022-10-02T21:11:20.000Z,101376.56
2022-10-02T21:14:12.254Z,101384.13
2022-10-02T21:17:20.908Z,101390.25
2022-10-02T21:20:46.233Z,101357.31
2022-10-02T21:24:06.976Z,101392.25
2022-10-02T21:27:02.467Z,101390.47
2022-10-02T21:29:57.568Z,101396.19
2022-10-02T21:32:41.108Z,101397.75
2022-10-02T21:35:16.665Z,101390.66
2022-10-02T21:38:01.280Z,101404.81
2022-10-02T21:41:21.805Z,101408.28
2022-10-02T21:44:28.136Z,101407.88
2022-10-02T21:47:27.665Z,101412.81
2022-10-02T21:50:23.290Z,101420.66
2022-10-02T21:53:22.638Z,101420.66
2022-10-02T21:56:33.636Z,101419.75
2022-10-02T21:59:51.396Z,101410.22
2022-10-02T22:02:51.835Z,101420.53
2022-10-02T22:05:43.313Z,101423.66
2022-10-02T22:08:21.011Z,101435.03
2022-10-02T22:10:59.185Z,101431.44
2022-10-02T22:13:33.309Z,101432.31
2022-10-02T22:16:19.900Z,101432.34
2022-10-02T22:18:52.650Z,101443.09
2022-10-02T22:21:46.332Z,101441.41
2022-10-02T22:24:29.819Z,101448.41
2022-10-02T22:27:29.647Z,101447.50
2022-10-02T22:29:58.894Z,101462.56
2022-10-02T22:33:08.836Z,101462.81
2022-10-02T22:36:03.246Z,101462.72
2022-10-02T22:38:34.940Z,101457.63
2022-10-02T22:41:08.176Z,101462.72
2022-10-02T22:43:45.580Z,101464.47
2022-10-02T22:46:24.772Z,101468.13
2022-10-02T22:48:58.392Z,101468.84
2022-10-02T22:51:36.973Z,101468.34
2022-10-02T22:54:17.350Z,101471.63
2022-10-02T22:56:52.214Z,101480.44
2022-10-02T22:59:29.178Z,101472.34
2022-10-02T23:02:04.767Z,101478.03
2022-10-02T23:04:39.236Z,101473.47
2022-10-02T23:07:17.522Z,101462.97
2022-10-02T23:09:51.565Z,101473.69
2022-10-02T23:12:28.112Z,101471.78
2022-10-02T23:15:05.091Z,101479.03
2022-10-02T23:17:38.814Z,101480.69
2022-10-02T23:20:14.593Z,101477.31
2022-10-02T23:22:53.300Z,101468.25
2022-10-02T23:25:28.125Z,101481.44
2022-10-02T23:28:02.218Z,101479.78
2022-10-02T23:30:35.645Z,101483.44
2022-10-02T23:33:15.288Z,101484.34
2022-10-02T23:35:49.889Z,101486.47
2022-10-02T23:38:23.658Z,101493.34
2022-10-02T23:41:20.473Z,101495.75
2022-10-02T23:43:57.762Z,101491.34
2022-10-02T23:46:29.680Z,101498.66
2022-10-02T23:48:59.015Z,101499.53
2022-10-02T23:51:41.950Z,101486.31
2022-10-02T23:54:30.952Z,101502.97
2022-10-02T23:57:19.905Z,101496.13
